sensor_id;sensor_type;location;lat;lon;timestamp;temperature;humidity
25504;DHT22;13410;52.114;5.718;2023-02-15T00:01:19;6.20;99.90
25504;DHT22;13410;52.114;5.718;2023-02-15T00:03:44;6.30;99.90
25504;DHT22;13410;52.114;5.718;2023-02-15T00:06:12;6.30;99.90
25504;DHT22;13410;52.114;5.718;2023-02-15T00:08:38;6.40;99.90
25504;DHT22;13410;52.114;5.718;2023-02-15T00:11:05;6.30;99.90
25504;DHT22;13410;52.114;5.718;2023-02-15T00:13:31;6.40;99.90
25504;DHT22;13410;52.114;5.718;2023-02-15T00:16:05;6.40;99.90
25504;DHT22;13410;52.114;5.718;2023-02-15T00:18:31;6.40;99.90
25504;DHT22;13410;52.114;5.718;2023-02-15T00:20:56;6.40;99.90
25504;DHT22;13410;52.114;5.718;2023-02-15T00:23:22;6.40;99.90
25504;DHT22;13410;52.114;5.718;2023-02-15T00:25:48;6.30;99.90
25504;DHT22;13410;52.114;5.718;2023-02-15T00:28:13;6.20;99.90
25504;DHT22;13410;52.114;5.718;2023-02-15T00:30:39;6.00;99.90
25504;DHT22;13410;52.114;5.718;2023-02-15T00:33:04;5.90;99.90
25504;DHT22;13410;52.114;5.718;2023-02-15T00:35:30;6.10;99.90
25504;DHT22;13410;52.114;5.718;2023-02-15T00:37:56;6.20;99.90
25504;DHT22;13410;52.114;5.718;2023-02-15T00:40:21;6.00;99.90
25504;DHT22;13410;52.114;5.718;2023-02-15T00:42:47;5.90;99.90
25504;DHT22;13410;52.114;5.718;2023-02-15T00:45:12;5.60;99.90
25504;DHT22;13410;52.114;5.718;2023-02-15T00:47:41;5.50;99.90
25504;DHT22;13410;52.114;5.718;2023-02-15T00:50:07;5.50;99.90
25504;DHT22;13410;52.114;5.718;2023-02-15T00:52:32;5.50;99.90
25504;DHT22;13410;52.114;5.718;2023-02-15T00:54:58;5.50;99.90
25504;DHT22;13410;52.114;5.718;2023-02-15T00:57:23;5.60;99.90
25504;DHT22;13410;52.114;5.718;2023-02-15T00:59:49;5.70;99.90
25504;DHT22;13410;52.114;5.718;2023-02-15T01:02:15;5.90;99.90
25504;DHT22;13410;52.114;5.718;2023-02-15T01:04:40;5.90;99.90
25504;DHT22;13410;52.114;5.718;2023-02-15T01:07:06;5.80;99.90
25504;DHT22;13410;52.114;5.718;2023-02-15T01:09:31;5.90;99.90
25504;DHT22;13410;52.114;5.718;2023-02-15T01:11:57;5.80;99.90
25504;DHT22;13410;52.114;5.718;2023-02-15T01:14:22;5.80;99.90
25504;DHT22;13410;52.114;5.718;2023-02-15T01:16:48;5.70;99.90
25504;DHT22;13410;52.114;5.718;2023-02-15T01:19:13;5.50;99.90
25504;DHT22;13410;52.114;5.718;2023-02-15T01:21:39;5.30;99.90
25504;DHT22;13410;52.114;5.718;2023-02-15T01:24:13;5.10;99.90
25504;DHT22;13410;52.114;5.718;2023-02-15T01:26:39;5.10;99.90
25504;DHT22;13410;52.114;5.718;2023-02-15T01:29:04;5.20;99.90
25504;DHT22;13410;52.114;5.718;2023-02-15T01:31:30;4.90;99.90
25504;DHT22;13410;52.114;5.718;2023-02-15T01:33:56;4.90;99.90
25504;DHT22;13410;52.114;5.718;2023-02-15T01:36:21;4.90;99.90
25504;DHT22;13410;52.114;5.718;2023-02-15T01:38:47;5.00;99.90
25504;DHT22;13410;52.114;5.718;2023-02-15T01:41:13;5.20;99.90
25504;DHT22;13410;52.114;5.718;2023-02-15T01:43:52;5.10;99.90
25504;DHT22;13410;52.114;5.718;2023-02-15T01:46:22;5.30;99.90
25504;DHT22;13410;52.114;5.718;2023-02-15T01:48:56;5.40;99.90
25504;DHT22;13410;52.114;5.718;2023-02-15T01:51:27;5.50;99.90
25504;DHT22;13410;52.114;5.718;2023-02-15T01:54:01;5.50;99.90
25504;DHT22;13410;52.114;5.718;2023-02-15T01:56:30;5.50;99.90
25504;DHT22;13410;52.114;5.718;2023-02-15T01:59:02;5.50;99.90
25504;DHT22;13410;52.114;5.718;2023-02-15T02:01:28;5.50;99.90
25504;DHT22;13410;52.114;5.718;2023-02-15T02:04:15;5.40;99.90
25504;DHT22;13410;52.114;5.718;2023-02-15T02:06:41;5.20;99.90
25504;DHT22;13410;52.114;5.718;2023-02-15T02:09:07;5.10;99.90
25504;DHT22;13410;52.114;5.718;2023-02-15T02:11:34;5.10;99.90
25504;DHT22;13410;52.114;5.718;2023-02-15T02:14:00;5.20;99.90
25504;DHT22;13410;52.114;5.718;2023-02-15T02:16:40;5.30;99.90
25504;DHT22;13410;52.114;5.718;2023-02-15T02:44:07;5.10;99.90
25504;DHT22;13410;52.114;5.718;2023-02-15T02:46:50;5.10;99.90
25504;DHT22;13410;52.114;5.718;2023-02-15T02:49:37;5.30;99.90
25504;DHT22;13410;52.114;5.718;2023-02-15T02:52:06;5.30;99.90
25504;DHT22;13410;52.114;5.718;2023-02-15T02:54:34;5.20;99.90
25504;DHT22;13410;52.114;5.718;2023-02-15T02:57:04;5.00;99.90
25504;DHT22;13410;52.114;5.718;2023-02-15T02:59:33;4.80;99.90
25504;DHT22;13410;52.114;5.718;2023-02-15T03:04:35;4.90;99.90
25504;DHT22;13410;52.114;5.718;2023-02-15T03:07:09;4.90;99.90
25504;DHT22;13410;52.114;5.718;2023-02-15T03:09:43;4.80;99.90
25504;DHT22;13410;52.114;5.718;2023-02-15T03:12:11;4.90;99.90
25504;DHT22;13410;52.114;5.718;2023-02-15T03:14:40;4.90;99.90
25504;DHT22;13410;52.114;5.718;2023-02-15T03:17:08;5.00;99.90
25504;DHT22;13410;52.114;5.718;2023-02-15T03:19:36;5.00;99.90
25504;DHT22;13410;52.114;5.718;2023-02-15T03:22:15;5.00;99.90
25504;DHT22;13410;52.114;5.718;2023-02-15T03:27:37;5.20;99.90
25504;DHT22;13410;52.114;5.718;2023-02-15T03:30:04;5.20;99.90
25504;DHT22;13410;52.114;5.718;2023-02-15T03:32:32;5.20;99.90
25504;DHT22;13410;52.114;5.718;2023-02-15T03:34:58;5.30;99.90
25504;DHT22;13410;52.114;5.718;2023-02-15T03:37:47;5.20;99.90
25504;DHT22;13410;52.114;5.718;2023-02-15T03:40:22;5.20;99.90
25504;DHT22;13410;52.114;5.718;2023-02-15T03:45:56;5.30;99.90
25504;DHT22;13410;52.114;5.718;2023-02-15T03:48:27;5.40;99.90
25504;DHT22;13410;52.114;5.718;2023-02-15T03:50:57;5.40;99.90
25504;DHT22;13410;52.114;5.718;2023-02-15T03:53:45;5.30;99.90
25504;DHT22;13410;52.114;5.718;2023-02-15T03:56:11;5.20;99.90
25504;DHT22;13410;52.114;5.718;2023-02-15T03:58:36;5.30;99.90
25504;DHT22;13410;52.114;5.718;2023-02-15T04:01:27;5.30;99.90
25504;DHT22;13410;52.114;5.718;2023-02-15T04:04:22;5.20;99.90
25504;DHT22;13410;52.114;5.718;2023-02-15T04:06:48;5.20;99.90
25504;DHT22;13410;52.114;5.718;2023-02-15T04:09:14;5.10;99.90
25504;DHT22;13410;52.114;5.718;2023-02-15T04:11:59;5.00;99.90
25504;DHT22;13410;52.114;5.718;2023-02-15T04:14:24;5.10;99.90
25504;DHT22;13410;52.114;5.718;2023-02-15T04:17:09;5.00;99.90
25504;DHT22;13410;52.114;5.718;2023-02-15T04:19:35;5.00;99.90
25504;DHT22;13410;52.114;5.718;2023-02-15T04:22:19;4.90;99.90
25504;DHT22;13410;52.114;5.718;2023-02-15T04:25:04;4.90;99.90
25504;DHT22;13410;52.114;5.718;2023-02-15T04:27:42;5.00;99.90
25504;DHT22;13410;52.114;5.718;2023-02-15T04:30:09;5.00;99.90
25504;DHT22;13410;52.114;5.718;2023-02-15T04:32:35;5.20;99.90
25504;DHT22;13410;52.114;5.718;2023-02-15T04:35:02;5.30;99.90
25504;DHT22;13410;52.114;5.718;2023-02-15T04:37:28;5.40;99.90
25504;DHT22;13410;52.114;5.718;2023-02-15T04:39:54;5.40;99.90
25504;DHT22;13410;52.114;5.718;2023-02-15T04:42:19;5.40;99.90
25504;DHT22;13410;52.114;5.718;2023-02-15T04:44:45;5.40;99.90
25504;DHT22;13410;52.114;5.718;2023-02-15T04:47:10;5.50;99.90
25504;DHT22;13410;52.114;5.718;2023-02-15T04:49:36;5.40;99.90
25504;DHT22;13410;52.114;5.718;2023-02-15T04:52:02;5.50;99.90
25504;DHT22;13410;52.114;5.718;2023-02-15T04:54:27;5.40;99.90
25504;DHT22;13410;52.114;5.718;2023-02-15T04:56:53;5.40;99.90
25504;DHT22;13410;52.114;5.718;2023-02-15T04:59:18;5.50;99.90
25504;DHT22;13410;52.114;5.718;2023-02-15T05:01:44;5.50;99.90
25504;DHT22;13410;52.114;5.718;2023-02-15T05:04:09;5.50;99.90
25504;DHT22;13410;52.114;5.718;2023-02-15T05:06:35;5.50;99.90
25504;DHT22;13410;52.114;5.718;2023-02-15T05:09:00;5.50;99.90
25504;DHT22;13410;52.114;5.718;2023-02-15T05:11:26;5.60;99.90
25504;DHT22;13410;52.114;5.718;2023-02-15T05:13:52;5.60;99.90
25504;DHT22;13410;52.114;5.718;2023-02-15T05:16:18;5.50;99.90
25504;DHT22;13410;52.114;5.718;2023-02-15T05:18:43;5.50;99.90
25504;DHT22;13410;52.114;5.718;2023-02-15T05:21:09;5.50;99.90
25504;DHT22;13410;52.114;5.718;2023-02-15T05:23:35;5.50;99.90
25504;DHT22;13410;52.114;5.718;2023-02-15T05:26:00;5.40;99.90
25504;DHT22;13410;52.114;5.718;2023-02-15T05:28:44;5.50;99.90
25504;DHT22;13410;52.114;5.718;2023-02-15T05:31:18;5.50;99.90
25504;DHT22;13410;52.114;5.718;2023-02-15T05:33:44;5.50;99.90
25504;DHT22;13410;52.114;5.718;2023-02-15T05:36:10;5.50;99.90
25504;DHT22;13410;52.114;5.718;2023-02-15T05:38:36;5.50;99.90
25504;DHT22;13410;52.114;5.718;2023-02-15T05:41:06;5.40;99.90
25504;DHT22;13410;52.114;5.718;2023-02-15T05:43:32;5.50;99.90
25504;DHT22;13410;52.114;5.718;2023-02-15T05:45:58;5.50;99.90
25504;DHT22;13410;52.114;5.718;2023-02-15T05:48:25;5.50;99.90
25504;DHT22;13410;52.114;5.718;2023-02-15T05:51:08;5.60;99.90
25504;DHT22;13410;52.114;5.718;2023-02-15T05:53:36;5.60;99.90
25504;DHT22;13410;52.114;5.718;2023-02-15T05:56:03;5.60;99.90
25504;DHT22;13410;52.114;5.718;2023-02-15T05:58:32;5.60;99.90
25504;DHT22;13410;52.114;5.718;2023-02-15T06:00:58;5.70;99.90
25504;DHT22;13410;52.114;5.718;2023-02-15T06:03:24;5.70;99.90
25504;DHT22;13410;52.114;5.718;2023-02-15T06:05:51;5.70;99.90
25504;DHT22;13410;52.114;5.718;2023-02-15T06:08:17;5.80;99.90
25504;DHT22;13410;52.114;5.718;2023-02-15T06:10:43;5.70;99.90
25504;DHT22;13410;52.114;5.718;2023-02-15T06:13:10;5.60;99.90
25504;DHT22;13410;52.114;5.718;2023-02-15T06:15:36;5.60;99.90
25504;DHT22;13410;52.114;5.718;2023-02-15T06:18:01;5.60;99.90
25504;DHT22;13410;52.114;5.718;2023-02-15T06:20:27;5.50;99.90
25504;DHT22;13410;52.114;5.718;2023-02-15T06:22:52;5.50;99.90
25504;DHT22;13410;52.114;5.718;2023-02-15T06:25:18;5.50;99.90
25504;DHT22;13410;52.114;5.718;2023-02-15T06:27:43;5.40;99.90
25504;DHT22;13410;52.114;5.718;2023-02-15T06:30:10;5.30;99.90
25504;DHT22;13410;52.114;5.718;2023-02-15T06:32:36;5.40;99.90
25504;DHT22;13410;52.114;5.718;2023-02-15T06:35:02;5.40;99.90
25504;DHT22;13410;52.114;5.718;2023-02-15T06:37:28;5.40;99.90
25504;DHT22;13410;52.114;5.718;2023-02-15T06:39:53;5.50;99.90
25504;DHT22;13410;52.114;5.718;2023-02-15T06:42:19;5.50;99.90
25504;DHT22;13410;52.114;5.718;2023-02-15T06:44:45;5.50;99.90
25504;DHT22;13410;52.114;5.718;2023-02-15T06:47:11;5.40;99.90
25504;DHT22;13410;52.114;5.718;2023-02-15T06:49:37;5.40;99.90
25504;DHT22;13410;52.114;5.718;2023-02-15T06:52:03;5.40;99.90
25504;DHT22;13410;52.114;5.718;2023-02-15T06:54:29;5.40;99.90
25504;DHT22;13410;52.114;5.718;2023-02-15T06:56:54;5.50;99.90
25504;DHT22;13410;52.114;5.718;2023-02-15T06:59:20;5.50;99.90
25504;DHT22;13410;52.114;5.718;2023-02-15T07:01:45;5.40;99.90
25504;DHT22;13410;52.114;5.718;2023-02-15T07:04:11;5.40;99.90
25504;DHT22;13410;52.114;5.718;2023-02-15T07:06:36;5.50;99.90
25504;DHT22;13410;52.114;5.718;2023-02-15T07:09:02;5.30;99.90
25504;DHT22;13410;52.114;5.718;2023-02-15T07:11:29;5.60;99.90
25504;DHT22;13410;52.114;5.718;2023-02-15T07:14:13;5.50;99.90
25504;DHT22;13410;52.114;5.718;2023-02-15T07:16:39;5.70;99.90
25504;DHT22;13410;52.114;5.718;2023-02-15T07:19:04;5.70;99.90
25504;DHT22;13410;52.114;5.718;2023-02-15T07:21:30;5.90;99.90
25504;DHT22;13410;52.114;5.718;2023-02-15T07:23:57;6.00;99.90
25504;DHT22;13410;52.114;5.718;2023-02-15T07:26:23;6.10;99.90
25504;DHT22;13410;52.114;5.718;2023-02-15T07:28:48;6.00;99.90
25504;DHT22;13410;52.114;5.718;2023-02-15T07:31:14;6.10;99.90
25504;DHT22;13410;52.114;5.718;2023-02-15T07:33:39;6.10;99.90
25504;DHT22;13410;52.114;5.718;2023-02-15T07:36:05;6.30;99.90
25504;DHT22;13410;52.114;5.718;2023-02-15T07:38:36;6.30;99.90
25504;DHT22;13410;52.114;5.718;2023-02-15T07:41:04;6.40;99.90
25504;DHT22;13410;52.114;5.718;2023-02-15T07:43:30;6.50;99.90
25504;DHT22;13410;52.114;5.718;2023-02-15T07:46:08;6.50;99.90
25504;DHT22;13410;52.114;5.718;2023-02-15T07:48:35;6.60;99.90
25504;DHT22;13410;52.114;5.718;2023-02-15T07:51:02;6.60;99.90
25504;DHT22;13410;52.114;5.718;2023-02-15T07:53:28;6.80;99.90
25504;DHT22;13410;52.114;5.718;2023-02-15T07:55:57;6.70;99.90
25504;DHT22;13410;52.114;5.718;2023-02-15T07:58:23;6.70;99.90
25504;DHT22;13410;52.114;5.718;2023-02-15T08:01:08;6.50;99.90
25504;DHT22;13410;52.114;5.718;2023-02-15T08:03:34;6.60;99.90
25504;DHT22;13410;52.114;5.718;2023-02-15T08:06:00;6.60;99.90
25504;DHT22;13410;52.114;5.718;2023-02-15T08:08:28;6.80;99.90
25504;DHT22;13410;52.114;5.718;2023-02-15T08:14:13;6.90;99.90
25504;DHT22;13410;52.114;5.718;2023-02-15T08:16:50;6.80;99.90
25504;DHT22;13410;52.114;5.718;2023-02-15T08:19:22;6.80;99.90
25504;DHT22;13410;52.114;5.718;2023-02-15T08:21:53;6.60;99.90
25504;DHT22;13410;52.114;5.718;2023-02-15T08:24:21;6.80;99.90
25504;DHT22;13410;52.114;5.718;2023-02-15T08:26:47;6.90;99.90
25504;DHT22;13410;52.114;5.718;2023-02-15T08:29:19;7.00;99.90
25504;DHT22;13410;52.114;5.718;2023-02-15T08:31:45;7.30;99.90
25504;DHT22;13410;52.114;5.718;2023-02-15T08:34:14;7.30;99.90
25504;DHT22;13410;52.114;5.718;2023-02-15T08:36:40;7.30;99.90
25504;DHT22;13410;52.114;5.718;2023-02-15T08:39:07;7.40;99.90
25504;DHT22;13410;52.114;5.718;2023-02-15T08:41:37;7.40;99.90
25504;DHT22;13410;52.114;5.718;2023-02-15T08:44:05;7.60;99.90
25504;DHT22;13410;52.114;5.718;2023-02-15T08:46:34;7.80;99.90
25504;DHT22;13410;52.114;5.718;2023-02-15T08:49:01;7.60;99.90
25504;DHT22;13410;52.114;5.718;2023-02-15T08:51:28;8.00;99.90
25504;DHT22;13410;52.114;5.718;2023-02-15T08:53:56;8.20;99.90
25504;DHT22;13410;52.114;5.718;2023-02-15T08:56:25;8.20;99.90
25504;DHT22;13410;52.114;5.718;2023-02-15T08:58:52;8.30;99.90
25504;DHT22;13410;52.114;5.718;2023-02-15T09:01:20;8.40;99.90
25504;DHT22;13410;52.114;5.718;2023-02-15T09:03:48;8.50;99.90
25504;DHT22;13410;52.114;5.718;2023-02-15T09:06:15;8.80;99.90
25504;DHT22;13410;52.114;5.718;2023-02-15T09:08:41;9.00;99.90
25504;DHT22;13410;52.114;5.718;2023-02-15T09:11:15;9.10;99.90
25504;DHT22;13410;52.114;5.718;2023-02-15T09:13:48;9.40;99.90
25504;DHT22;13410;52.114;5.718;2023-02-15T09:16:13;9.40;99.90
25504;DHT22;13410;52.114;5.718;2023-02-15T09:18:41;9.60;99.90
25504;DHT22;13410;52.114;5.718;2023-02-15T09:21:10;9.70;99.90
25504;DHT22;13410;52.114;5.718;2023-02-15T09:23:38;9.90;99.90
25504;DHT22;13410;52.114;5.718;2023-02-15T09:26:06;10.10;99.90
25504;DHT22;13410;52.114;5.718;2023-02-15T09:28:32;10.30;99.90
25504;DHT22;13410;52.114;5.718;2023-02-15T09:31:25;10.60;99.90
25504;DHT22;13410;52.114;5.718;2023-02-15T09:33:50;10.60;99.90
25504;DHT22;13410;52.114;5.718;2023-02-15T09:38:48;10.60;99.90
25504;DHT22;13410;52.114;5.718;2023-02-15T09:47:37;10.90;99.90
25504;DHT22;13410;52.114;5.718;2023-02-15T09:50:35;11.00;99.90
25504;DHT22;13410;52.114;5.718;2023-02-15T10:04:01;11.90;99.90
25504;DHT22;13410;52.114;5.718;2023-02-15T10:06:55;11.80;99.90
25504;DHT22;13410;52.114;5.718;2023-02-15T10:18:01;12.40;99.90
25504;DHT22;13410;52.114;5.718;2023-02-15T10:20:54;12.50;99.90
25504;DHT22;13410;52.114;5.718;2023-02-15T10:23:45;12.60;99.90
25504;DHT22;13410;52.114;5.718;2023-02-15T10:31:46;12.90;99.90
25504;DHT22;13410;52.114;5.718;2023-02-15T10:34:35;13.10;99.90
25504;DHT22;13410;52.114;5.718;2023-02-15T10:46:29;13.80;99.90
25504;DHT22;13410;52.114;5.718;2023-02-15T10:52:19;14.10;99.90
25504;DHT22;13410;52.114;5.718;2023-02-15T10:55:05;14.50;99.90
25504;DHT22;13410;52.114;5.718;2023-02-15T10:57:54;14.40;99.90
25504;DHT22;13410;52.114;5.718;2023-02-15T11:00:27;14.50;99.90
25504;DHT22;13410;52.114;5.718;2023-02-15T11:06:07;14.60;99.90
25504;DHT22;13410;52.114;5.718;2023-02-15T11:08:45;14.60;99.90
25504;DHT22;13410;52.114;5.718;2023-02-15T11:11:15;14.60;99.90
25504;DHT22;13410;52.114;5.718;2023-02-15T11:13:51;14.70;99.90
25504;DHT22;13410;52.114;5.718;2023-02-15T11:16:33;14.80;99.90
25504;DHT22;13410;52.114;5.718;2023-02-15T11:19:10;15.00;99.90
25504;DHT22;13410;52.114;5.718;2023-02-15T11:21:50;15.00;99.90
25504;DHT22;13410;52.114;5.718;2023-02-15T11:24:19;15.10;99.90
25504;DHT22;13410;52.114;5.718;2023-02-15T11:32:25;15.40;99.90
25504;DHT22;13410;52.114;5.718;2023-02-15T11:37:57;15.40;99.90
25504;DHT22;13410;52.114;5.718;2023-02-15T11:40:32;15.40;99.90
25504;DHT22;13410;52.114;5.718;2023-02-15T11:43:05;15.50;99.90
25504;DHT22;13410;52.114;5.718;2023-02-15T11:45:33;15.40;99.90
25504;DHT22;13410;52.114;5.718;2023-02-15T11:48:00;15.40;99.90
25504;DHT22;13410;52.114;5.718;2023-02-15T11:50:29;15.50;99.90
25504;DHT22;13410;52.114;5.718;2023-02-15T11:53:03;15.70;99.90
25504;DHT22;13410;52.114;5.718;2023-02-15T11:55:30;15.80;99.90
25504;DHT22;13410;52.114;5.718;2023-02-15T11:58:01;16.00;99.90
25504;DHT22;13410;52.114;5.718;2023-02-15T12:00:43;16.00;99.90
25504;DHT22;13410;52.114;5.718;2023-02-15T12:03:44;16.20;99.90
25504;DHT22;13410;52.114;5.718;2023-02-15T12:06:27;16.40;99.90
25504;DHT22;13410;52.114;5.718;2023-02-15T12:09:03;16.60;99.90
25504;DHT22;13410;52.114;5.718;2023-02-15T12:11:36;16.70;99.90
25504;DHT22;13410;52.114;5.718;2023-02-15T12:14:08;16.90;99.90
25504;DHT22;13410;52.114;5.718;2023-02-15T12:16:41;16.90;99.90
25504;DHT22;13410;52.114;5.718;2023-02-15T12:19:19;17.00;99.90
25504;DHT22;13410;52.114;5.718;2023-02-15T12:21:51;17.00;99.90
25504;DHT22;13410;52.114;5.718;2023-02-15T12:24:25;17.10;99.90
25504;DHT22;13410;52.114;5.718;2023-02-15T12:27:04;17.20;99.90
25504;DHT22;13410;52.114;5.718;2023-02-15T12:29:39;17.40;99.90
25504;DHT22;13410;52.114;5.718;2023-02-15T12:32:06;17.50;99.90
25504;DHT22;13410;52.114;5.718;2023-02-15T12:34:38;17.50;99.90
25504;DHT22;13410;52.114;5.718;2023-02-15T12:37:22;17.60;99.90
25504;DHT22;13410;52.114;5.718;2023-02-15T12:39:57;17.70;99.90
25504;DHT22;13410;52.114;5.718;2023-02-15T12:42:23;17.90;99.90
25504;DHT22;13410;52.114;5.718;2023-02-15T12:45:04;17.90;99.90
25504;DHT22;13410;52.114;5.718;2023-02-15T12:47:44;18.00;99.90
25504;DHT22;13410;52.114;5.718;2023-02-15T12:50:30;18.00;99.90
25504;DHT22;13410;52.114;5.718;2023-02-15T12:53:14;18.10;99.90
25504;DHT22;13410;52.114;5.718;2023-02-15T12:55:50;18.00;99.90
25504;DHT22;13410;52.114;5.718;2023-02-15T12:58:19;18.20;99.90
25504;DHT22;13410;52.114;5.718;2023-02-15T13:00:46;18.40;99.90
25504;DHT22;13410;52.114;5.718;2023-02-15T13:03:22;18.40;99.90
25504;DHT22;13410;52.114;5.718;2023-02-15T13:05:53;18.40;99.90
25504;DHT22;13410;52.114;5.718;2023-02-15T13:08:21;18.40;99.90
25504;DHT22;13410;52.114;5.718;2023-02-15T13:11:08;18.40;99.90
25504;DHT22;13410;52.114;5.718;2023-02-15T13:13:45;18.30;99.90
25504;DHT22;13410;52.114;5.718;2023-02-15T13:16:13;18.20;99.90
25504;DHT22;13410;52.114;5.718;2023-02-15T13:18:44;18.20;99.90
25504;DHT22;13410;52.114;5.718;2023-02-15T13:23:37;18.20;99.90
25504;DHT22;13410;52.114;5.718;2023-02-15T13:26:10;18.00;99.90
25504;DHT22;13410;52.114;5.718;2023-02-15T13:28:45;17.90;99.90
25504;DHT22;13410;52.114;5.718;2023-02-15T13:31:19;18.00;99.90
25504;DHT22;13410;52.114;5.718;2023-02-15T13:34:20;17.80;99.90
25504;DHT22;13410;52.114;5.718;2023-02-15T13:39:55;17.60;99.90
25504;DHT22;13410;52.114;5.718;2023-02-15T13:42:37;17.50;99.90
25504;DHT22;13410;52.114;5.718;2023-02-15T13:51:13;17.70;99.90
25504;DHT22;13410;52.114;5.718;2023-02-15T13:54:13;17.90;99.90
25504;DHT22;13410;52.114;5.718;2023-02-15T13:59:58;17.90;99.90
25504;DHT22;13410;52.114;5.718;2023-02-15T14:05:47;17.90;99.90
25504;DHT22;13410;52.114;5.718;2023-02-15T14:17:03;18.10;99.90
25504;DHT22;13410;52.114;5.718;2023-02-15T14:19:57;18.10;99.90
25504;DHT22;13410;52.114;5.718;2023-02-15T14:22:41;18.10;99.90
25504;DHT22;13410;52.114;5.718;2023-02-15T14:28:09;18.10;99.90
25504;DHT22;13410;52.114;5.718;2023-02-15T14:30:42;18.00;99.90
25504;DHT22;13410;52.114;5.718;2023-02-15T14:33:30;17.90;99.90
25504;DHT22;13410;52.114;5.718;2023-02-15T14:35:56;18.00;99.90
25504;DHT22;13410;52.114;5.718;2023-02-15T14:41:52;17.80;99.90
25504;DHT22;13410;52.114;5.718;2023-02-15T14:47:35;17.50;99.90
25504;DHT22;13410;52.114;5.718;2023-02-15T14:56:06;17.60;99.90
25504;DHT22;13410;52.114;5.718;2023-02-15T15:01:52;17.70;99.90
25504;DHT22;13410;52.114;5.718;2023-02-15T15:04:27;17.50;99.90
25504;DHT22;13410;52.114;5.718;2023-02-15T15:07:27;17.50;99.90
25504;DHT22;13410;52.114;5.718;2023-02-15T15:18:07;17.30;99.90
25504;DHT22;13410;52.114;5.718;2023-02-15T15:25:49;17.10;99.90
25504;DHT22;13410;52.114;5.718;2023-02-15T15:31:03;17.10;99.90
25504;DHT22;13410;52.114;5.718;2023-02-15T15:36:54;16.90;99.90
25504;DHT22;13410;52.114;5.718;2023-02-15T15:42:49;16.70;99.90
25504;DHT22;13410;52.114;5.718;2023-02-15T15:45:24;16.70;99.90
25504;DHT22;13410;52.114;5.718;2023-02-15T15:50:44;16.50;99.90
25504;DHT22;13410;52.114;5.718;2023-02-15T15:53:20;16.60;99.90
25504;DHT22;13410;52.114;5.718;2023-02-15T15:55:47;16.50;99.90
25504;DHT22;13410;52.114;5.718;2023-02-15T15:58:16;16.40;99.90
25504;DHT22;13410;52.114;5.718;2023-02-15T16:00:54;16.40;99.90
25504;DHT22;13410;52.114;5.718;2023-02-15T16:03:23;16.40;99.90
25504;DHT22;13410;52.114;5.718;2023-02-15T16:05:49;16.40;99.90
25504;DHT22;13410;52.114;5.718;2023-02-15T16:08:33;16.30;99.90
25504;DHT22;13410;52.114;5.718;2023-02-15T16:11:00;16.30;99.90
25504;DHT22;13410;52.114;5.718;2023-02-15T16:13:27;16.20;99.90
25504;DHT22;13410;52.114;5.718;2023-02-15T16:15:54;16.20;99.90
25504;DHT22;13410;52.114;5.718;2023-02-15T16:18:23;16.20;99.90
25504;DHT22;13410;52.114;5.718;2023-02-15T16:20:57;16.10;99.90
25504;DHT22;13410;52.114;5.718;2023-02-15T16:23:46;16.00;99.90
25504;DHT22;13410;52.114;5.718;2023-02-15T16:26:42;16.00;99.90
25504;DHT22;13410;52.114;5.718;2023-02-15T16:29:18;15.90;99.90
25504;DHT22;13410;52.114;5.718;2023-02-15T16:32:00;15.90;99.90
25504;DHT22;13410;52.114;5.718;2023-02-15T16:34:25;15.80;99.90
25504;DHT22;13410;52.114;5.718;2023-02-15T16:37:18;15.70;99.90
25504;DHT22;13410;52.114;5.718;2023-02-15T16:39:45;15.50;99.90
25504;DHT22;13410;52.114;5.718;2023-02-15T16:42:15;15.40;99.90
25504;DHT22;13410;52.114;5.718;2023-02-15T16:44:41;15.40;99.90
25504;DHT22;13410;52.114;5.718;2023-02-15T16:47:19;15.30;99.90
25504;DHT22;13410;52.114;5.718;2023-02-15T16:49:48;15.30;99.90
25504;DHT22;13410;52.114;5.718;2023-02-15T16:52:25;15.20;99.90
25504;DHT22;13410;52.114;5.718;2023-02-15T16:54:57;15.10;99.90
25504;DHT22;13410;52.114;5.718;2023-02-15T16:57:26;15.10;99.90
25504;DHT22;13410;52.114;5.718;2023-02-15T16:59:55;14.90;99.90
25504;DHT22;13410;52.114;5.718;2023-02-15T17:02:25;14.80;99.90
25504;DHT22;13410;52.114;5.718;2023-02-15T17:10:40;14.70;99.90
25504;DHT22;13410;52.114;5.718;2023-02-15T17:13:15;14.60;99.90
25504;DHT22;13410;52.114;5.718;2023-02-15T17:15:42;14.40;99.90
25504;DHT22;13410;52.114;5.718;2023-02-15T17:18:20;14.30;99.90
25504;DHT22;13410;52.114;5.718;2023-02-15T17:20:49;14.30;99.90
25504;DHT22;13410;52.114;5.718;2023-02-15T17:23:26;14.20;99.90
25504;DHT22;13410;52.114;5.718;2023-02-15T17:25:53;14.30;99.90
25504;DHT22;13410;52.114;5.718;2023-02-15T17:28:21;14.10;99.90
25504;DHT22;13410;52.114;5.718;2023-02-15T17:30:49;14.10;99.90
25504;DHT22;13410;52.114;5.718;2023-02-15T17:33:27;14.00;99.90
25504;DHT22;13410;52.114;5.718;2023-02-15T17:36:27;14.00;99.90
25504;DHT22;13410;52.114;5.718;2023-02-15T17:41:31;13.90;99.90
25504;DHT22;13410;52.114;5.718;2023-02-15T17:43:58;13.80;99.90
25504;DHT22;13410;52.114;5.718;2023-02-15T17:46:25;13.80;99.90
25504;DHT22;13410;52.114;5.718;2023-02-15T17:48:53;13.80;99.90
25504;DHT22;13410;52.114;5.718;2023-02-15T17:51:20;13.70;99.90
25504;DHT22;13410;52.114;5.718;2023-02-15T17:53:47;13.70;99.90
25504;DHT22;13410;52.114;5.718;2023-02-15T17:56:35;13.70;99.90
25504;DHT22;13410;52.114;5.718;2023-02-15T17:59:02;13.60;99.90
25504;DHT22;13410;52.114;5.718;2023-02-15T18:01:35;13.60;99.90
25504;DHT22;13410;52.114;5.718;2023-02-15T18:04:20;13.50;99.90
25504;DHT22;13410;52.114;5.718;2023-02-15T18:07:06;13.40;99.90
25504;DHT22;13410;52.114;5.718;2023-02-15T18:09:51;13.40;99.90
25504;DHT22;13410;52.114;5.718;2023-02-15T18:12:35;13.30;99.90
25504;DHT22;13410;52.114;5.718;2023-02-15T18:15:04;13.30;99.90
25504;DHT22;13410;52.114;5.718;2023-02-15T18:17:38;13.30;99.90
25504;DHT22;13410;52.114;5.718;2023-02-15T18:22:43;13.30;99.90
25504;DHT22;13410;52.114;5.718;2023-02-15T18:25:13;13.30;99.90
25504;DHT22;13410;52.114;5.718;2023-02-15T18:27:38;13.30;99.90
25504;DHT22;13410;52.114;5.718;2023-02-15T18:30:06;13.30;99.90
25504;DHT22;13410;52.114;5.718;2023-02-15T18:32:35;13.20;99.90
25504;DHT22;13410;52.114;5.718;2023-02-15T18:35:02;13.20;99.90
25504;DHT22;13410;52.114;5.718;2023-02-15T18:37:31;13.20;99.90
25504;DHT22;13410;52.114;5.718;2023-02-15T18:39:58;13.10;99.90
25504;DHT22;13410;52.114;5.718;2023-02-15T18:42:29;13.20;99.90
25504;DHT22;13410;52.114;5.718;2023-02-15T18:44:58;13.10;99.90
25504;DHT22;13410;52.114;5.718;2023-02-15T18:47:24;13.10;99.90
25504;DHT22;13410;52.114;5.718;2023-02-15T18:49:50;13.00;99.90
25504;DHT22;13410;52.114;5.718;2023-02-15T18:52:18;12.90;99.90
25504;DHT22;13410;52.114;5.718;2023-02-15T18:54:44;13.00;99.90
25504;DHT22;13410;52.114;5.718;2023-02-15T18:57:12;12.90;99.90
25504;DHT22;13410;52.114;5.718;2023-02-15T18:59:39;12.90;99.90
25504;DHT22;13410;52.114;5.718;2023-02-15T19:02:16;12.90;99.90